Chinook, Montana
Current Conditions -  °F | °C
As of 4:53 PM on Sunday 23 Nov 2014 (Local Time) from KHVR Reporting Station
Clear Clear  
Wind Chill: 25°   Ceiling: Unl
Heat Index: 34°   Visibility: 10mi
Dew Point: 26°   Wind: 13mph
Humidity: 73%   Direction: 220°SW
Pressure: 29.79"   Gusts: NA
Location:  48.59°N, 109.23°W
Report Text: KHVR 232353Z AUTO 22011KT 10SM CLR 01/M03 A2979 RMK AO2 SLP111 T00111033 10067 20006 56011
Loading
Personal Weather Stations






























Interactive Weather Map New forecast layout! Learn more

10-Day Weather Forecast

Advertisements
Track Severe Weather on mobile